Time;durP1;ratioP1;P1;durP2;ratioP2;P2;SDS_P1;SDS_P2;PMS_P1;PMS_P2;Temp;Humidity;BMP_temperature;BMP_pressure;BME280_temperature;BME280_humidity;BME280_pressure;Samples;Min_cycle;Max_cycle;Signal;HPM_P1;HPM_P2
2021/03/01 00:01:14;;;;;;;24.93;16.93;;;;;;;;;;5000339;28;20191;-69
2021/03/01 00:03:40;;;;;;;31.60;17.73;;;;;;;;;;4997197;28;20550;-72
2021/03/01 00:06:05;;;;;;;23.77;17.47;;;;;;;;;;5004136;28;20564;-72
2021/03/01 00:08:30;;;;;;;26.63;18.43;;;;;;;;;;5001024;28;20207;-72
2021/03/01 00:10:55;;;;;;;28.90;18.70;;;;;;;;;;5002456;28;20202;-69
2021/03/01 00:13:21;;;;;;;28.53;17.97;;;;;;;;;;5005208;28;20617;-74
2021/03/01 00:15:47;;;;;;;28.87;19.10;;;;;;;;;;5000577;28;20316;-70
2021/03/01 00:18:12;;;;;;;35.60;18.40;;;;;;;;;;5001366;28;20809;-71
2021/03/01 00:20:38;;;;;;;30.07;19.23;;;;;;;;;;5007158;28;20439;-69
2021/03/01 00:23:03;;;;;;;35.30;19.40;;;;;;;;;;5000795;28;20226;-70
2021/03/01 00:25:28;;;;;;;35.50;21.33;;;;;;;;;;5009055;28;20280;-70
2021/03/01 00:27:53;;;;;;;33.47;19.47;;;;;;;;;;5002876;28;20175;-70
2021/03/01 00:30:19;;;;;;;32.47;19.63;;;;;;;;;;4997593;28;21069;-70
2021/03/01 00:32:44;;;;;;;31.83;20.10;;;;;;;;;;4997199;28;20171;-71
2021/03/01 00:35:09;;;;;;;34.13;19.57;;;;;;;;;;5005288;28;20224;-70
2021/03/01 00:37:34;;;;;;;32.47;19.77;;;;;;;;;;5002927;28;20550;-71
2021/03/01 00:39:59;;;;;;;31.50;19.30;;;;;;;;;;4984201;28;20257;-70
2021/03/01 00:42:25;;;;;;;29.83;20.60;;;;;;;;;;5000192;28;20175;-70
2021/03/01 00:44:50;;;;;;;34.97;21.57;;;;;;;;;;4995398;28;20187;-70
2021/03/01 00:47:15;;;;;;;37.20;20.83;;;;;;;;;;5006720;28;20261;-70
2021/03/01 00:49:40;;;;;;;33.67;20.50;;;;;;;;;;4998855;28;20212;-70
2021/03/01 00:52:05;;;;;;;35.03;20.43;;;;;;;;;;5001948;28;20194;-72
2021/03/01 00:54:31;;;;;;;36.13;20.97;;;;;;;;;;4997252;28;20195;-70
2021/03/01 00:56:56;;;;;;;34.73;22.13;;;;;;;;;;4997546;28;20176;-70
2021/03/01 00:59:21;;;;;;;35.63;21.57;;;;;;;;;;4994514;28;20681;-70
2021/03/01 01:01:46;;;;;;;36.73;21.53;;;;;;;;;;5003937;28;20171;-70
2021/03/01 01:04:11;;;;;;;34.67;21.20;;;;;;;;;;5002799;28;20187;-72
2021/03/01 01:06:37;;;;;;;37.10;20.47;;;;;;;;;;5003962;28;20191;-69
2021/03/01 01:09:02;;;;;;;35.53;21.10;;;;;;;;;;5006058;28;20272;-70
2021/03/01 01:11:28;;;;;;;36.70;21.63;;;;;;;;;;5005088;28;20198;-70
2021/03/01 01:13:53;;;;;;;38.87;21.87;;;;;;;;;;5000900;28;20755;-70
2021/03/01 01:16:18;;;;;;;33.60;20.33;;;;;;;;;;5008202;28;20218;-70
2021/03/01 01:18:43;;;;;;;37.27;21.13;;;;;;;;;;5002096;28;20720;-70
2021/03/01 01:21:08;;;;;;;35.40;21.13;;;;;;;;;;5007056;28;20179;-70
2021/03/01 01:23:33;;;;;;;37.93;20.53;;;;;;;;;;5006882;28;20182;-70
2021/03/01 01:25:59;;;;;;;43.20;23.03;;;;;;;;;;5003860;28;20665;-70
2021/03/01 01:28:24;;;;;;;36.77;22.00;;;;;;;;;;4995255;28;20483;-70
2021/03/01 01:30:49;;;;;;;38.40;20.67;;;;;;;;;;4999085;28;20194;-70
2021/03/01 01:33:14;;;;;;;34.60;20.30;;;;;;;;;;5002714;28;20206;-70
2021/03/01 01:35:40;;;;;;;38.37;19.50;;;;;;;;;;5001423;28;20235;-70
2021/03/01 01:38:05;;;;;;;30.87;17.87;;;;;;;;;;5007756;28;20179;-70
2021/03/01 01:40:30;;;;;;;36.53;20.20;;;;;;;;;;5003012;28;20253;-71
2021/03/01 01:42:56;;;;;;;30.97;18.67;;;;;;;;;;5004364;28;20668;-70
2021/03/01 01:45:22;;;;;;;34.07;18.47;;;;;;;;;;4999288;28;20187;-70
2021/03/01 01:47:49;;;;;;;31.97;18.27;;;;;;;;;;4999637;28;20190;-71
2021/03/01 01:50:14;;;;;;;33.70;19.37;;;;;;;;;;5002092;28;20210;-71
2021/03/01 01:52:40;;;;;;;33.67;18.17;;;;;;;;;;5000819;28;20215;-70
2021/03/01 01:55:06;;;;;;;32.63;18.10;;;;;;;;;;5010380;28;20239;-70
2021/03/01 01:57:31;;;;;;;32.00;18.83;;;;;;;;;;5006708;28;20195;-71
2021/03/01 01:59:57;;;;;;;30.43;19.13;;;;;;;;;;4999391;28;20753;-71
2021/03/01 02:02:22;;;;;;;29.77;17.83;;;;;;;;;;4994218;28;20187;-71
2021/03/01 02:04:51;;;;;;;25.80;16.60;;;;;;;;;;5001877;28;20191;-70
2021/03/01 02:07:38;;;;;;;28.30;18.00;;;;;;;;;;5002529;28;20232;-70
2021/03/01 02:10:14;;;;;;;35.10;19.67;;;;;;;;;;5002684;28;20286;-70
2021/03/01 02:12:58;;;;;;;32.57;19.03;;;;;;;;;;5000205;28;20248;-70
2021/03/01 02:15:43;;;;;;;29.83;18.20;;;;;;;;;;4999326;28;20583;-70
2021/03/01 02:18:09;;;;;;;29.17;18.93;;;;;;;;;;4997457;28;20174;-71
2021/03/01 02:20:39;;;;;;;38.23;20.37;;;;;;;;;;5004060;28;20171;-70
2021/03/01 02:23:04;;;;;;;30.60;18.03;;;;;;;;;;5002841;28;20531;-70
2021/03/01 02:25:30;;;;;;;35.53;19.40;;;;;;;;;;4998819;28;20187;-71
2021/03/01 02:28:03;;;;;;;33.33;19.63;;;;;;;;;;5004851;28;20645;-71
2021/03/01 02:30:33;;;;;;;35.87;19.40;;;;;;;;;;5007872;28;20257;-70
2021/03/01 02:33:02;;;;;;;37.67;19.10;;;;;;;;;;5002506;28;20179;-71
2021/03/01 02:35:29;;;;;;;38.90;19.40;;;;;;;;;;4993111;28;20270;-70
2021/03/01 02:37:55;;;;;;;36.93;19.17;;;;;;;;;;4997786;28;20622;-71
2021/03/01 02:40:20;;;;;;;31.00;18.10;;;;;;;;;;5001387;28;20289;-70
2021/03/01 02:42:46;;;;;;;35.80;17.93;;;;;;;;;;4999518;28;20254;-70
2021/03/01 02:45:12;;;;;;;30.27;17.13;;;;;;;;;;5005727;28;20261;-70
2021/03/01 02:47:39;;;;;;;28.80;16.00;;;;;;;;;;5000184;28;20317;-71
2021/03/01 02:50:05;;;;;;;29.10;16.03;;;;;;;;;;5004486;28;20286;-70
2021/03/01 02:52:30;;;;;;;29.70;15.77;;;;;;;;;;4997607;28;20211;-73
2021/03/01 02:54:56;;;;;;;29.40;17.73;;;;;;;;;;5004476;28;20234;-70
2021/03/01 02:57:23;;;;;;;27.83;15.53;;;;;;;;;;5005611;28;20214;-69
2021/03/01 02:59:49;;;;;;;26.57;15.47;;;;;;;;;;5001301;28;20206;-70
2021/03/01 03:02:17;;;;;;;26.90;16.47;;;;;;;;;;5001882;28;20179;-72
2021/03/01 03:04:43;;;;;;;27.73;16.30;;;;;;;;;;5005512;28;20186;-70
2021/03/01 03:07:09;;;;;;;29.50;16.20;;;;;;;;;;5006586;28;20203;-70
2021/03/01 03:09:34;;;;;;;30.57;15.97;;;;;;;;;;5006832;28;20269;-72
2021/03/01 03:12:00;;;;;;;25.33;15.33;;;;;;;;;;5006777;28;20182;-72
2021/03/01 03:14:26;;;;;;;23.80;14.60;;;;;;;;;;5012726;28;20186;-73
2021/03/01 03:16:53;;;;;;;25.53;14.73;;;;;;;;;;5002159;28;20187;-72
2021/03/01 03:19:18;;;;;;;24.70;14.90;;;;;;;;;;5006632;28;20230;-69
2021/03/01 03:21:43;;;;;;;32.07;16.17;;;;;;;;;;5002486;28;20649;-72
2021/03/01 03:24:09;;;;;;;27.73;15.97;;;;;;;;;;5012463;28;20195;-72
2021/03/01 03:26:34;;;;;;;28.63;16.13;;;;;;;;;;5009678;28;20268;-70
2021/03/01 03:28:59;;;;;;;25.00;15.97;;;;;;;;;;4996591;28;20199;-70
2021/03/01 03:31:25;;;;;;;30.07;16.17;;;;;;;;;;5008618;28;20261;-70
2021/03/01 03:33:50;;;;;;;27.33;15.70;;;;;;;;;;5003443;28;20622;-72
2021/03/01 03:36:17;;;;;;;30.03;15.57;;;;;;;;;;5001765;28;20200;-72
2021/03/01 03:38:55;;;;;;;25.60;14.90;;;;;;;;;;5008730;28;20203;-70
2021/03/01 03:41:21;;;;;;;27.73;16.57;;;;;;;;;;5001766;28;20215;-70
2021/03/01 03:43:46;;;;;;;25.00;15.13;;;;;;;;;;5003413;28;20215;-72
2021/03/01 03:46:12;;;;;;;24.90;16.03;;;;;;;;;;5002189;28;20175;-70
2021/03/01 03:48:38;;;;;;;28.03;15.87;;;;;;;;;;4998989;28;20211;-70
2021/03/01 03:51:04;;;;;;;27.90;14.57;;;;;;;;;;5001719;28;20179;-69
2021/03/01 03:53:32;;;;;;;28.43;15.97;;;;;;;;;;5009642;28;20214;-70
2021/03/01 03:55:59;;;;;;;28.83;15.17;;;;;;;;;;5004032;28;20206;-69
2021/03/01 03:58:27;;;;;;;27.37;16.37;;;;;;;;;;5007147;28;20179;-70
2021/03/01 04:00:53;;;;;;;27.53;15.80;;;;;;;;;;5003052;28;20184;-70
2021/03/01 04:03:18;;;;;;;26.03;15.73;;;;;;;;;;5000677;28;20180;-70
2021/03/01 04:05:44;;;;;;;27.10;14.83;;;;;;;;;;5009304;28;20622;-72
2021/03/01 04:08:11;;;;;;;26.23;15.77;;;;;;;;;;5005436;28;20195;-71
2021/03/01 04:10:37;;;;;;;26.23;16.33;;;;;;;;;;5001451;28;20202;-69
2021/03/01 04:13:06;;;;;;;30.10;17.03;;;;;;;;;;4999527;28;20179;-72
2021/03/01 04:15:32;;;;;;;26.53;15.23;;;;;;;;;;5004015;28;20203;-73
2021/03/01 04:17:58;;;;;;;28.40;17.00;;;;;;;;;;5000984;28;20175;-71
2021/03/01 04:20:25;;;;;;;24.17;15.60;;;;;;;;;;5004600;28;20237;-72
2021/03/01 04:22:52;;;;;;;22.07;14.93;;;;;;;;;;5001223;28;20195;-72
2021/03/01 04:25:18;;;;;;;28.37;17.43;;;;;;;;;;5005715;28;20673;-71
2021/03/01 04:27:43;;;;;;;32.20;15.63;;;;;;;;;;5003008;28;20179;-72
2021/03/01 04:30:10;;;;;;;29.13;14.77;;;;;;;;;;5007838;28;20211;-71
2021/03/01 04:32:36;;;;;;;29.47;16.13;;;;;;;;;;5007215;28;20189;-72
2021/03/01 04:35:03;;;;;;;26.83;14.77;;;;;;;;;;5000694;28;20210;-69
2021/03/01 04:37:28;;;;;;;28.80;17.57;;;;;;;;;;5008120;28;20233;-72
2021/03/01 04:39:53;;;;;;;26.40;16.63;;;;;;;;;;5008779;28;20668;-71
2021/03/01 04:42:19;;;;;;;28.33;17.40;;;;;;;;;;5008733;28;20203;-71
2021/03/01 04:44:46;;;;;;;26.53;16.00;;;;;;;;;;5006729;28;20187;-72
2021/03/01 04:47:12;;;;;;;26.23;15.57;;;;;;;;;;5007912;28;20222;-71
2021/03/01 04:49:38;;;;;;;27.10;15.67;;;;;;;;;;4998756;28;20195;-72
2021/03/01 04:52:04;;;;;;;24.93;15.43;;;;;;;;;;4995800;28;20233;-71
2021/03/01 04:54:29;;;;;;;31.77;16.43;;;;;;;;;;5002335;28;20183;-69
2021/03/01 04:56:54;;;;;;;28.83;16.63;;;;;;;;;;5000082;28;20203;-72
2021/03/01 04:59:20;;;;;;;26.67;17.33;;;;;;;;;;5005304;28;20283;-72
2021/03/01 05:01:47;;;;;;;30.50;16.10;;;;;;;;;;4993842;28;20182;-72
2021/03/01 05:04:13;;;;;;;27.20;16.37;;;;;;;;;;4998213;28;20687;-69
2021/03/01 05:06:38;;;;;;;29.40;16.90;;;;;;;;;;5004747;28;20222;-71
2021/03/01 05:09:03;;;;;;;30.87;16.70;;;;;;;;;;5002749;28;20277;-72
2021/03/01 05:11:32;;;;;;;31.80;17.73;;;;;;;;;;5001121;28;20602;-72
2021/03/01 05:13:58;;;;;;;31.60;18.60;;;;;;;;;;5000040;28;20187;-73
2021/03/01 05:16:24;;;;;;;30.80;17.27;;;;;;;;;;5003311;28;20214;-70
2021/03/01 05:18:50;;;;;;;30.33;17.30;;;;;;;;;;5003758;28;20207;-72
2021/03/01 05:21:15;;;;;;;28.57;16.97;;;;;;;;;;5002098;28;20229;-72
2021/03/01 05:23:40;;;;;;;30.60;17.37;;;;;;;;;;5011070;28;20167;-72
2021/03/01 05:26:05;;;;;;;33.10;18.43;;;;;;;;;;5005241;28;20203;-72
2021/03/01 05:28:30;;;;;;;29.90;17.13;;;;;;;;;;4998140;28;20272;-71
2021/03/01 05:30:55;;;;;;;28.40;16.87;;;;;;;;;;5006071;28;20200;-71
2021/03/01 05:33:21;;;;;;;34.07;18.83;;;;;;;;;;5006712;28;20675;-70
2021/03/01 05:35:46;;;;;;;34.00;19.17;;;;;;;;;;4998792;28;20211;-71
2021/03/01 05:38:11;;;;;;;49.97;20.43;;;;;;;;;;5008047;28;20282;-72
2021/03/01 05:40:36;;;;;;;36.23;18.87;;;;;;;;;;5007242;28;20234;-72
2021/03/01 05:43:01;;;;;;;38.77;20.40;;;;;;;;;;5004611;28;20218;-73
2021/03/01 05:45:27;;;;;;;30.43;17.07;;;;;;;;;;5006600;28;20653;-72
2021/03/01 05:47:52;;;;;;;29.17;16.53;;;;;;;;;;5002092;28;20219;-72
2021/03/01 05:50:18;;;;;;;33.63;19.13;;;;;;;;;;5003892;28;20206;-71
2021/03/01 05:52:46;;;;;;;39.83;20.97;;;;;;;;;;5001379;28;20245;-71
2021/03/01 05:55:11;;;;;;;37.13;19.17;;;;;;;;;;5001831;28;20199;-71
2021/03/01 05:57:38;;;;;;;33.63;18.83;;;;;;;;;;5005109;28;20241;-71
2021/03/01 06:00:03;;;;;;;37.53;19.77;;;;;;;;;;5000061;28;20249;-72
2021/03/01 06:02:28;;;;;;;33.37;18.63;;;;;;;;;;5001103;28;20187;-69
2021/03/01 06:04:54;;;;;;;39.50;19.50;;;;;;;;;;4998492;28;20180;-71
2021/03/01 06:07:19;;;;;;;34.97;19.40;;;;;;;;;;5001486;28;20187;-72
2021/03/01 06:09:44;;;;;;;33.23;19.00;;;;;;;;;;5001290;28;20573;-72
2021/03/01 06:12:10;;;;;;;41.40;20.60;;;;;;;;;;4997252;28;20670;-72
2021/03/01 06:14:35;;;;;;;35.13;19.97;;;;;;;;;;5000502;28;20183;-70
2021/03/01 06:17:15;;;;;;;33.77;18.90;;;;;;;;;;4994708;28;20250;-73
2021/03/01 06:19:50;;;;;;;35.73;20.13;;;;;;;;;;5000412;28;20298;-71
2021/03/01 06:22:16;;;;;;;36.77;19.03;;;;;;;;;;5009913;28;20185;-71
2021/03/01 06:24:41;;;;;;;36.97;19.60;;;;;;;;;;4996100;28;20167;-74
2021/03/01 06:27:08;;;;;;;43.50;21.50;;;;;;;;;;4997871;28;20534;-72
2021/03/01 06:29:33;;;;;;;39.27;21.87;;;;;;;;;;5003510;28;20195;-72
2021/03/01 06:31:58;;;;;;;42.60;22.50;;;;;;;;;;5000902;28;20186;-71
2021/03/01 06:34:33;;;;;;;37.83;21.60;;;;;;;;;;4998867;28;20262;-72
2021/03/01 06:37:01;;;;;;;38.37;19.00;;;;;;;;;;5002890;28;20621;-73
2021/03/01 06:39:33;;;;;;;38.67;20.53;;;;;;;;;;5005796;28;20194;-71
2021/03/01 06:42:23;;;;;;;34.90;19.13;;;;;;;;;;4994835;28;20270;-72
2021/03/01 06:44:54;;;;;;;40.47;20.47;;;;;;;;;;5003446;28;20179;-71
2021/03/01 06:47:19;;;;;;;34.23;18.77;;;;;;;;;;4994199;28;20298;-71
2021/03/01 06:49:45;;;;;;;33.87;19.67;;;;;;;;;;4999936;28;20223;-72
2021/03/01 06:52:30;;;;;;;40.00;20.10;;;;;;;;;;5003326;28;20199;-73
2021/03/01 06:55:07;;;;;;;36.40;20.13;;;;;;;;;;4999120;28;20207;-72
2021/03/01 06:57:32;;;;;;;32.07;18.00;;;;;;;;;;4999196;28;20180;-73
2021/03/01 07:00:00;;;;;;;36.17;19.53;;;;;;;;;;5000011;28;20203;-73
2021/03/01 07:02:39;;;;;;;36.30;19.73;;;;;;;;;;5002205;28;20241;-72
2021/03/01 07:05:04;;;;;;;34.17;18.90;;;;;;;;;;4998456;28;20657;-71
2021/03/01 07:07:36;;;;;;;42.13;20.97;;;;;;;;;;5009028;28;20190;-72
2021/03/01 07:10:02;;;;;;;34.83;20.00;;;;;;;;;;4999657;28;20297;-71
2021/03/01 07:12:41;;;;;;;35.83;19.57;;;;;;;;;;5001816;28;20675;-71
2021/03/01 07:15:07;;;;;;;32.47;18.83;;;;;;;;;;5001849;28;20249;-71
2021/03/01 07:17:34;;;;;;;34.80;20.23;;;;;;;;;;5002902;28;20183;-71
2021/03/01 07:20:00;;;;;;;33.47;19.10;;;;;;;;;;5000130;28;20199;-71
2021/03/01 07:22:26;;;;;;;34.20;20.47;;;;;;;;;;4998105;28;20188;-71
2021/03/01 07:24:52;;;;;;;36.27;19.23;;;;;;;;;;4994426;28;20230;-71
2021/03/01 07:27:18;;;;;;;33.63;18.03;;;;;;;;;;4996468;28;20182;-71
2021/03/01 07:29:45;;;;;;;38.10;19.73;;;;;;;;;;4996688;28;20191;-71
2021/03/01 07:32:13;;;;;;;32.80;18.50;;;;;;;;;;5002262;28;20179;-71
2021/03/01 07:34:39;;;;;;;32.23;18.60;;;;;;;;;;5017679;28;20175;-71
2021/03/01 07:37:04;;;;;;;30.93;16.60;;;;;;;;;;5013863;28;20172;-70
2021/03/01 07:39:31;;;;;;;31.83;17.30;;;;;;;;;;5019696;28;20202;-71
2021/03/01 07:41:57;;;;;;;28.93;17.03;;;;;;;;;;5013548;28;20210;-71
2021/03/01 07:44:23;;;;;;;28.53;16.90;;;;;;;;;;5004546;28;20203;-72
2021/03/01 07:46:49;;;;;;;27.07;15.50;;;;;;;;;;5004250;28;20206;-71
2021/03/01 07:49:34;;;;;;;26.80;14.97;;;;;;;;;;5003667;28;20235;-72
2021/03/01 07:51:59;;;;;;;29.03;16.47;;;;;;;;;;5000717;28;21965;-72
2021/03/01 07:54:44;;;;;;;27.10;17.27;;;;;;;;;;4999977;28;20206;-71
2021/03/01 07:57:09;;;;;;;30.13;15.90;;;;;;;;;;5003163;28;20221;-71
2021/03/01 07:59:34;;;;;;;29.13;16.53;;;;;;;;;;5003259;28;20640;-71
2021/03/01 08:02:20;;;;;;;28.93;16.93;;;;;;;;;;5003858;28;20186;-72
2021/03/01 08:04:45;;;;;;;31.13;17.87;;;;;;;;;;5000285;28;20222;-72
2021/03/01 08:07:11;;;;;;;31.20;17.03;;;;;;;;;;5000467;28;20206;-71
2021/03/01 08:09:39;;;;;;;31.03;16.97;;;;;;;;;;4999267;28;20210;-72
2021/03/01 08:12:04;;;;;;;28.93;17.67;;;;;;;;;;4994024;28;20175;-72
2021/03/01 08:14:48;;;;;;;30.40;17.40;;;;;;;;;;4996379;28;20565;-70
2021/03/01 08:17:28;;;;;;;29.93;16.00;;;;;;;;;;4998474;28;20202;-71
2021/03/01 08:19:57;;;;;;;29.27;16.00;;;;;;;;;;5003386;28;20195;-71
2021/03/01 08:22:24;;;;;;;30.37;15.83;;;;;;;;;;5003100;28;20187;-71
2021/03/01 08:24:50;;;;;;;27.90;16.63;;;;;;;;;;4999597;28;20322;-72
2021/03/01 08:27:25;;;;;;;30.00;17.17;;;;;;;;;;5005041;28;20281;-72
2021/03/01 08:30:08;;;;;;;27.13;16.17;;;;;;;;;;5003141;28;20210;-71
2021/03/01 08:32:34;;;;;;;27.53;16.53;;;;;;;;;;4998559;28;20180;-72
2021/03/01 08:35:19;;;;;;;24.93;16.30;;;;;;;;;;4996630;28;20215;-71
2021/03/01 08:37:45;;;;;;;29.33;17.30;;;;;;;;;;4997189;28;20182;-71
2021/03/01 08:40:17;;;;;;;30.33;16.90;;;;;;;;;;4999730;28;20199;-72
2021/03/01 08:42:46;;;;;;;30.03;16.53;;;;;;;;;;5001418;28;20171;-71
2021/03/01 08:45:12;;;;;;;28.20;16.20;;;;;;;;;;4994757;28;20219;-72
2021/03/01 08:47:54;;;;;;;29.17;16.80;;;;;;;;;;4995301;28;20290;-71
2021/03/01 08:50:23;;;;;;;32.93;16.83;;;;;;;;;;4991547;28;21171;-72
2021/03/01 08:52:49;;;;;;;27.73;17.83;;;;;;;;;;5007772;28;20252;-71
2021/03/01 08:55:15;;;;;;;26.00;15.70;;;;;;;;;;5001897;28;20685;-71
2021/03/01 08:57:59;;;;;;;31.33;18.23;;;;;;;;;;5000544;28;20229;-71
2021/03/01 09:00:25;;;;;;;31.57;18.80;;;;;;;;;;5001927;28;20195;-71
2021/03/01 09:03:07;;;;;;;33.67;19.03;;;;;;;;;;4997559;28;20187;-71
2021/03/01 09:05:32;;;;;;;40.27;21.63;;;;;;;;;;5000921;28;20187;-71
2021/03/01 09:07:57;;;;;;;32.93;18.80;;;;;;;;;;4995047;28;20649;-72
2021/03/01 09:10:32;;;;;;;28.17;17.37;;;;;;;;;;5005726;28;20230;-71
2021/03/01 09:12:57;;;;;;;32.60;18.60;;;;;;;;;;4997375;28;20307;-71
2021/03/01 09:15:23;;;;;;;30.27;17.83;;;;;;;;;;4996821;28;20203;-71
2021/03/01 09:17:51;;;;;;;28.60;16.53;;;;;;;;;;4998844;28;20566;-72
2021/03/01 09:20:16;;;;;;;29.60;17.90;;;;;;;;;;5001031;28;20615;-71
2021/03/01 09:22:44;;;;;;;30.07;17.00;;;;;;;;;;5000542;28;20182;-72
2021/03/01 09:25:30;;;;;;;28.97;17.87;;;;;;;;;;5003136;28;20180;-71
2021/03/01 09:27:55;;;;;;;32.73;17.60;;;;;;;;;;5000888;28;20603;-70
2021/03/01 09:30:24;;;;;;;31.20;17.93;;;;;;;;;;5001566;28;20210;-71
2021/03/01 09:33:03;;;;;;;29.73;17.90;;;;;;;;;;4996015;28;20182;-72
2021/03/01 09:35:32;;;;;;;27.40;16.77;;;;;;;;;;5001898;28;20218;-72
2021/03/01 09:37:57;;;;;;;27.17;16.13;;;;;;;;;;5001526;28;20187;-71
2021/03/01 09:40:24;;;;;;;25.13;14.40;;;;;;;;;;5006289;28;20203;-71
2021/03/01 09:42:50;;;;;;;28.97;16.53;;;;;;;;;;5003664;28;20655;-72
2021/03/01 09:45:15;;;;;;;28.27;16.67;;;;;;;;;;4998708;28;20322;-71
2021/03/01 09:47:41;;;;;;;27.63;15.53;;;;;;;;;;4992286;28;20288;-71
2021/03/01 09:50:07;;;;;;;25.63;16.23;;;;;;;;;;5002331;28;20229;-71
2021/03/01 09:52:32;;;;;;;30.80;16.97;;;;;;;;;;5007386;28;20276;-72
2021/03/01 09:54:58;;;;;;;25.87;15.63;;;;;;;;;;5000297;28;20639;-72
2021/03/01 09:57:27;;;;;;;29.60;15.83;;;;;;;;;;4999126;28;20274;-70
2021/03/01 09:59:53;;;;;;;27.63;16.67;;;;;;;;;;5003823;28;20199;-71
2021/03/01 10:02:25;;;;;;;25.67;15.07;;;;;;;;;;4997897;28;20179;-71
2021/03/01 10:04:52;;;;;;;24.73;15.07;;;;;;;;;;5000098;28;20565;-72
2021/03/01 10:07:27;;;;;;;25.50;14.77;;;;;;;;;;5003826;28;20650;-71
2021/03/01 10:09:53;;;;;;;24.83;14.10;;;;;;;;;;5001601;28;20226;-71
2021/03/01 10:12:18;;;;;;;21.23;14.57;;;;;;;;;;5001274;28;20278;-71
2021/03/01 10:14:44;;;;;;;25.90;15.33;;;;;;;;;;4998596;28;20179;-71
2021/03/01 10:17:20;;;;;;;23.73;14.37;;;;;;;;;;4997736;28;20278;-71
2021/03/01 10:19:45;;;;;;;25.20;15.47;;;;;;;;;;5003265;28;20680;-71
2021/03/01 10:22:10;;;;;;;26.23;15.47;;;;;;;;;;4989558;28;20187;-71
2021/03/01 10:24:42;;;;;;;25.83;14.87;;;;;;;;;;4993334;28;20260;-72
2021/03/01 10:27:08;;;;;;;25.13;15.60;;;;;;;;;;4995977;28;20589;-71
2021/03/01 10:29:34;;;;;;;23.50;14.47;;;;;;;;;;4998008;28;20344;-70
2021/03/01 10:32:00;;;;;;;24.60;15.00;;;;;;;;;;4996244;28;20559;-72
2021/03/01 10:34:27;;;;;;;23.03;14.57;;;;;;;;;;4996056;28;20190;-70
2021/03/01 10:36:55;;;;;;;23.80;13.97;;;;;;;;;;5007133;28;20243;-71
2021/03/01 10:39:24;;;;;;;25.20;16.00;;;;;;;;;;5000167;28;20904;-71
2021/03/01 10:41:54;;;;;;;26.07;15.00;;;;;;;;;;5004787;28;20187;-71
2021/03/01 10:44:35;;;;;;;25.40;14.73;;;;;;;;;;4996626;28;20625;-71
2021/03/01 10:47:14;;;;;;;26.07;15.70;;;;;;;;;;5002779;28;20265;-71
2021/03/01 10:49:39;;;;;;;20.53;13.70;;;;;;;;;;4998049;28;20229;-72
2021/03/01 10:52:06;;;;;;;19.70;13.30;;;;;;;;;;5005830;28;20206;-70
2021/03/01 10:54:31;;;;;;;21.80;14.20;;;;;;;;;;5000502;28;20215;-72
2021/03/01 10:56:57;;;;;;;19.03;13.50;;;;;;;;;;4993789;28;20199;-72
2021/03/01 10:59:22;;;;;;;20.67;13.93;;;;;;;;;;4997831;28;20699;-71
2021/03/01 11:01:47;;;;;;;20.90;14.37;;;;;;;;;;5005239;28;20222;-72
2021/03/01 11:04:13;;;;;;;22.20;13.77;;;;;;;;;;4993263;28;20211;-72
2021/03/01 11:06:39;;;;;;;22.50;13.50;;;;;;;;;;4995928;28;20191;-71
2021/03/01 11:09:05;;;;;;;21.37;13.97;;;;;;;;;;4996184;28;20218;-71
2021/03/01 11:11:31;;;;;;;21.63;12.87;;;;;;;;;;5001664;28;20230;-71
2021/03/01 11:13:56;;;;;;;22.53;13.47;;;;;;;;;;5000874;28;20191;-71
2021/03/01 11:16:21;;;;;;;21.33;15.00;;;;;;;;;;5004783;28;20261;-71
2021/03/01 11:18:47;;;;;;;22.20;14.57;;;;;;;;;;5010686;28;20191;-71
2021/03/01 11:21:12;;;;;;;24.43;16.27;;;;;;;;;;5007056;28;20562;-71
2021/03/01 11:23:37;;;;;;;20.70;12.93;;;;;;;;;;5003260;28;20184;-70
2021/03/01 11:26:02;;;;;;;20.93;13.67;;;;;;;;;;5003962;28;20183;-71
2021/03/01 11:28:28;;;;;;;17.73;12.33;;;;;;;;;;4998823;28;20261;-72
2021/03/01 11:30:54;;;;;;;20.53;13.40;;;;;;;;;;5003432;28;20176;-71
2021/03/01 11:33:19;;;;;;;19.20;12.93;;;;;;;;;;4997760;28;20183;-71
2021/03/01 11:35:44;;;;;;;20.03;13.40;;;;;;;;;;5000477;28;20215;-71
2021/03/01 11:38:10;;;;;;;19.40;13.40;;;;;;;;;;5000175;28;20248;-71
2021/03/01 11:40:35;;;;;;;18.70;14.43;;;;;;;;;;4997497;28;20179;-71
2021/03/01 11:43:00;;;;;;;21.93;15.30;;;;;;;;;;4997346;28;20176;-71
2021/03/01 11:45:25;;;;;;;21.83;13.67;;;;;;;;;;4994295;28;20186;-71
2021/03/01 11:47:50;;;;;;;17.33;12.33;;;;;;;;;;4997948;28;20188;-71
2021/03/01 11:50:17;;;;;;;18.03;12.17;;;;;;;;;;4997135;28;20249;-71
2021/03/01 11:52:42;;;;;;;15.77;12.03;;;;;;;;;;4998100;28;20657;-72
2021/03/01 11:55:07;;;;;;;20.47;14.10;;;;;;;;;;4995811;28;20210;-71
2021/03/01 11:57:32;;;;;;;19.40;12.87;;;;;;;;;;5001741;28;20183;-72
2021/03/01 11:59:57;;;;;;;20.50;13.10;;;;;;;;;;4998430;28;20196;-71
2021/03/01 12:02:23;;;;;;;20.80;11.77;;;;;;;;;;4993327;28;20283;-71
2021/03/01 12:04:48;;;;;;;16.40;11.73;;;;;;;;;;4994807;28;20210;-72
2021/03/01 12:07:13;;;;;;;20.80;13.77;;;;;;;;;;4998635;28;20598;-71
2021/03/01 12:09:38;;;;;;;14.83;11.13;;;;;;;;;;4992766;28;20218;-72
2021/03/01 12:12:03;;;;;;;16.53;11.70;;;;;;;;;;4994040;28;20849;-71
2021/03/01 12:14:30;;;;;;;15.87;10.83;;;;;;;;;;4996924;28;20187;-73
2021/03/01 12:16:55;;;;;;;15.13;10.33;;;;;;;;;;4994814;28;20780;-71
2021/03/01 12:19:20;;;;;;;15.70;10.43;;;;;;;;;;4996138;28;20556;-71
2021/03/01 12:21:46;;;;;;;13.60;10.03;;;;;;;;;;4997288;28;20171;-71
2021/03/01 12:24:12;;;;;;;13.30;9.63;;;;;;;;;;4996542;28;20176;-71
2021/03/01 12:26:37;;;;;;;15.73;10.03;;;;;;;;;;4992779;28;20238;-71
2021/03/01 12:29:02;;;;;;;13.63;10.07;;;;;;;;;;4998796;28;20210;-71
2021/03/01 12:31:27;;;;;;;13.83;10.27;;;;;;;;;;4998283;28;20208;-71
2021/03/01 12:33:52;;;;;;;13.03;9.50;;;;;;;;;;4995422;28;20222;-73
2021/03/01 12:36:18;;;;;;;16.97;10.87;;;;;;;;;;4993512;28;20254;-73
2021/03/01 12:38:44;;;;;;;13.60;9.20;;;;;;;;;;4994313;28;20562;-71
2021/03/01 12:41:09;;;;;;;14.97;10.53;;;;;;;;;;5000091;28;20176;-71
2021/03/01 12:43:34;;;;;;;17.97;10.13;;;;;;;;;;4993327;28;20197;-71
2021/03/01 12:45:59;;;;;;;15.53;8.83;;;;;;;;;;4998873;28;20187;-71
2021/03/01 12:48:25;;;;;;;15.00;9.97;;;;;;;;;;4995887;28;20668;-71
2021/03/01 12:50:50;;;;;;;12.70;8.97;;;;;;;;;;4996939;28;20668;-73
2021/03/01 12:53:15;;;;;;;14.23;10.17;;;;;;;;;;4998836;28;20197;-71
2021/03/01 12:55:40;;;;;;;13.47;10.03;;;;;;;;;;5001575;28;20214;-72
2021/03/01 12:58:05;;;;;;;14.33;10.40;;;;;;;;;;5000189;28;20270;-72
2021/03/01 13:00:31;;;;;;;13.50;9.63;;;;;;;;;;4999819;28;20669;-70
2021/03/01 13:02:56;;;;;;;14.70;9.80;;;;;;;;;;4995407;28;20206;-69
2021/03/01 13:05:21;;;;;;;17.40;11.23;;;;;;;;;;4994151;28;20198;-70
2021/03/01 13:07:46;;;;;;;14.57;9.63;;;;;;;;;;4993778;28;20188;-70
2021/03/01 13:10:12;;;;;;;13.27;8.97;;;;;;;;;;5000466;28;20294;-70
2021/03/01 13:12:37;;;;;;;13.10;9.43;;;;;;;;;;4994922;28;20191;-69
2021/03/01 13:15:03;;;;;;;15.17;10.50;;;;;;;;;;4993874;28;20852;-69
2021/03/01 13:17:29;;;;;;;13.83;10.23;;;;;;;;;;4995574;28;20214;-69
2021/03/01 13:19:54;;;;;;;16.52;10.02;;;;;;;;;;4992683;28;20650;-70
2021/03/01 13:22:19;;;;;;;14.40;10.02;;;;;;;;;;4994444;28;20252;-70
2021/03/01 13:24:44;;;;;;;13.77;9.88;;;;;;;;;;4994476;28;20190;-71
2021/03/01 13:27:09;;;;;;;15.02;10.65;;;;;;;;;;4992743;28;20228;-71
2021/03/01 13:29:35;;;;;;;13.98;10.52;;;;;;;;;;4990939;28;20313;-71
2021/03/01 13:32:00;;;;;;;15.65;10.00;;;;;;;;;;4991780;28;20184;-72
2021/03/01 13:34:26;;;;;;;15.82;10.73;;;;;;;;;;4992326;28;20546;-71
2021/03/01 13:36:51;;;;;;;14.50;9.75;;;;;;;;;;4993775;28;21557;-73
2021/03/01 13:39:16;;;;;;;17.13;10.77;;;;;;;;;;4991342;28;20645;-70
2021/03/01 13:41:41;;;;;;;16.10;10.35;;;;;;;;;;4996594;28;20210;-71
2021/03/01 13:44:07;;;;;;;15.40;10.68;;;;;;;;;;4995118;28;20175;-70
2021/03/01 13:46:32;;;;;;;15.63;10.23;;;;;;;;;;5001899;28;20194;-71
2021/03/01 13:49:00;;;;;;;15.65;10.57;;;;;;;;;;4999857;28;20229;-73
2021/03/01 13:51:25;;;;;;;15.05;9.65;;;;;;;;;;4993745;28;20547;-73
2021/03/01 13:53:50;;;;;;;14.13;10.10;;;;;;;;;;4994977;28;20183;-70
2021/03/01 13:56:15;;;;;;;15.65;10.80;;;;;;;;;;4997533;28;20214;-71
2021/03/01 13:58:41;;;;;;;17.63;10.38;;;;;;;;;;4999133;28;20945;-69
2021/03/01 14:01:06;;;;;;;18.45;10.35;;;;;;;;;;4994279;28;20167;-71
2021/03/01 14:03:31;;;;;;;15.32;10.30;;;;;;;;;;4989836;28;20180;-70
2021/03/01 14:05:56;;;;;;;14.43;10.50;;;;;;;;;;4992396;28;20221;-71
2021/03/01 14:08:22;;;;;;;14.68;10.65;;;;;;;;;;4996530;28;20452;-70
2021/03/01 14:10:47;;;;;;;14.90;10.13;;;;;;;;;;4992437;28;20218;-71
2021/03/01 14:13:12;;;;;;;16.02;10.48;;;;;;;;;;4993329;28;20211;-70
2021/03/01 14:15:37;;;;;;;18.45;10.70;;;;;;;;;;4992085;28;20214;-71
2021/03/01 14:18:03;;;;;;;15.85;10.90;;;;;;;;;;4995269;28;20241;-68